Time;durP1;ratioP1;P1;durP2;ratioP2;P2;SDS_P1;SDS_P2;PMS_P1;PMS_P2;Temp;Humidity;BMP_temperature;BMP_pressure;BME280_temperature;BME280_humidity;BME280_pressure;Samples;Min_cycle;Max_cycle;Signal;HPM_P1;HPM_P2
2022/07/26 00:01:57;;;;;;;12.93;3.22;;;18.70;99.50;;;;;;5054996;28;20068;-64
2022/07/26 00:04:23;;;;;;;10.70;3.10;;;18.60;99.90;;;;;;5053123;28;20051;-64
2022/07/26 00:06:48;;;;;;;12.90;3.00;;;18.60;99.80;;;;;;5061997;28;20037;-64
2022/07/26 00:09:14;;;;;;;14.50;3.05;;;18.60;99.90;;;;;;5064711;28;20444;-64
2022/07/26 00:11:39;;;;;;;16.13;3.42;;;18.60;99.90;;;;;;5054920;28;20044;-64
2022/07/26 00:14:06;;;;;;;13.02;2.90;;;18.60;99.90;;;;;;5057108;28;20484;-63
2022/07/26 00:16:32;;;;;;;16.58;3.85;;;18.60;99.90;;;;;;5050879;28;20037;-64
2022/07/26 00:18:57;;;;;;;10.65;2.63;;;18.60;99.90;;;;;;5050628;28;20052;-64
2022/07/26 00:21:23;;;;;;;16.80;3.33;;;18.60;99.90;;;;;;5055551;28;20162;-64
2022/07/26 00:23:49;;;;;;;11.90;2.58;;;18.60;99.90;;;;;;5057408;28;20049;-64
2022/07/26 00:26:15;;;;;;;18.58;3.55;;;18.60;99.90;;;;;;5052560;28;20056;-64
2022/07/26 00:28:41;;;;;;;12.45;3.10;;;18.60;99.90;;;;;;5051281;28;20048;-64
2022/07/26 00:31:07;;;;;;;13.23;3.42;;;18.50;99.90;;;;;;5055074;28;20045;-63
2022/07/26 00:33:33;;;;;;;13.32;3.03;;;18.50;99.90;;;;;;5056515;28;20041;-64
2022/07/26 00:35:58;;;;;;;15.30;3.90;;;18.50;99.90;;;;;;5051488;28;20048;-64
2022/07/26 00:38:24;;;;;;;10.43;2.70;;;18.50;99.90;;;;;;5062364;28;20033;-64
2022/07/26 00:40:50;;;;;;;11.82;3.03;;;18.50;99.90;;;;;;5066518;28;20037;-64
2022/07/26 00:43:16;;;;;;;13.00;3.10;;;18.40;99.90;;;;;;5066901;28;20032;-65
2022/07/26 00:45:41;;;;;;;13.45;3.05;;;18.30;99.90;;;;;;5059986;28;20064;-64
2022/07/26 00:48:07;;;;;;;13.68;2.95;;;18.30;99.90;;;;;;5057416;28;20036;-64
2022/07/26 00:50:33;;;;;;;17.52;3.42;;;18.20;99.90;;;;;;5055697;28;20055;-63
2022/07/26 00:52:58;;;;;;;11.20;2.90;;;18.20;99.90;;;;;;5053227;28;20044;-63
2022/07/26 00:55:24;;;;;;;10.32;3.03;;;18.10;99.90;;;;;;5050522;28;20392;-64
2022/07/26 00:57:50;;;;;;;11.20;3.55;;;18.20;99.90;;;;;;5052419;28;20128;-64
2022/07/26 01:00:22;;;;;;;10.60;3.13;;;18.10;99.90;;;;;;5058515;28;20090;-64
2022/07/26 01:02:48;;;;;;;12.65;3.90;;;18.20;99.90;;;;;;5054670;28;20700;-64
2022/07/26 01:05:14;;;;;;;8.35;3.00;;;18.10;99.90;;;;;;5058723;28;20037;-64
2022/07/26 01:07:40;;;;;;;12.80;3.30;;;18.00;99.90;;;;;;5050238;28;20041;-64
2022/07/26 01:10:11;;;;;;;12.88;3.38;;;18.00;99.90;;;;;;5063059;28;20050;-64
2022/07/26 01:12:41;;;;;;;12.15;3.15;;;18.00;99.90;;;;;;5067416;28;20372;-62
2022/07/26 01:15:07;;;;;;;;;;;18.00;99.90;;;;;;5064242;28;20193;-63
2022/07/26 01:17:33;;;;;;;14.52;3.13;;;17.90;99.90;;;;;;5036788;28;20004;-63
2022/07/26 01:19:59;;;;;;;12.15;3.30;;;17.80;99.90;;;;;;5049096;28;20128;-64
2022/07/26 01:22:24;;;;;;;13.95;3.05;;;17.80;99.90;;;;;;5058931;28;20044;-64
2022/07/26 01:24:50;;;;;;;14.35;3.22;;;17.80;99.90;;;;;;5056529;28;20039;-64
2022/07/26 01:27:16;;;;;;;18.88;4.07;;;17.90;99.90;;;;;;5059088;28;20094;-64
2022/07/26 01:29:41;;;;;;;16.20;3.22;;;17.70;99.90;;;;;;5055551;28;20052;-64
2022/07/26 01:32:08;;;;;;;10.63;3.10;;;17.70;99.90;;;;;;5052191;28;20127;-64
2022/07/26 01:34:33;;;;;;;23.90;4.40;;;17.60;99.90;;;;;;5046066;28;20029;-63
2022/07/26 01:36:59;;;;;;;15.60;3.65;;;17.60;99.90;;;;;;5051646;28;20032;-64
2022/07/26 01:39:25;;;;;;;10.52;3.22;;;17.60;99.90;;;;;;5056828;28;20036;-64
2022/07/26 01:41:50;;;;;;;10.93;3.03;;;17.50;99.90;;;;;;5058334;28;20079;-64
2022/07/26 01:44:16;;;;;;;10.68;2.97;;;17.50;99.90;;;;;;5050594;28;20045;-64
2022/07/26 01:46:41;;;;;;;12.50;2.92;;;17.50;99.90;;;;;;5055107;28;20029;-64
2022/07/26 01:49:08;;;;;;;11.57;3.17;;;17.40;99.90;;;;;;5048006;28;20412;-64
2022/07/26 01:51:34;;;;;;;15.50;3.75;;;17.40;99.90;;;;;;5052081;28;20076;-64
2022/07/26 01:54:00;;;;;;;13.02;3.30;;;17.40;99.90;;;;;;5052152;28;20029;-64
2022/07/26 01:56:26;;;;;;;11.65;3.63;;;17.40;99.90;;;;;;5055958;28;20128;-64
2022/07/26 01:58:51;;;;;;;12.68;3.40;;;17.30;99.90;;;;;;5059528;28;20124;-64
2022/07/26 02:01:17;;;;;;;17.67;3.63;;;17.40;99.90;;;;;;5057417;28;20444;-64
2022/07/26 02:03:43;;;;;;;11.10;3.38;;;17.30;99.90;;;;;;5064590;28;20476;-64
2022/07/26 02:06:09;;;;;;;12.88;3.45;;;17.40;99.90;;;;;;5050163;28;20167;-64
2022/07/26 02:08:34;;;;;;;13.10;3.40;;;17.40;99.90;;;;;;5048465;28;20044;-63
2022/07/26 02:11:00;;;;;;;17.15;3.63;;;17.40;99.90;;;;;;5051103;28;20392;-64
2022/07/26 02:13:31;;;;;;;14.18;3.53;;;17.40;99.90;;;;;;5048769;28;20037;-64
2022/07/26 02:15:59;;;;;;;13.40;2.80;;;17.50;99.90;;;;;;5049649;28;20120;-64
2022/07/26 02:18:26;;;;;;;16.38;4.00;;;17.50;99.90;;;;;;5056510;28;20393;-64
2022/07/26 02:20:52;;;;;;;17.00;4.25;;;17.60;99.90;;;;;;5047664;28;20048;-64
2022/07/26 02:23:18;;;;;;;12.15;3.55;;;17.60;99.90;;;;;;5053491;28;20033;-64
2022/07/26 02:25:44;;;;;;;12.85;3.47;;;17.60;99.90;;;;;;5051333;28;20037;-64
2022/07/26 02:28:10;;;;;;;11.00;3.33;;;17.60;99.90;;;;;;5051797;28;20036;-64
2022/07/26 02:30:35;;;;;;;10.20;3.30;;;17.70;99.90;;;;;;5056144;28;20477;-64
2022/07/26 02:33:01;;;;;;;12.23;3.35;;;17.70;99.90;;;;;;5048061;28;20053;-64
2022/07/26 02:35:26;;;;;;;10.52;3.42;;;17.70;99.90;;;;;;5057413;28;20566;-64
2022/07/26 02:37:52;;;;;;;11.38;3.40;;;17.70;99.90;;;;;;5054960;28;20039;-64
2022/07/26 02:40:18;;;;;;;10.90;2.67;;;17.70;99.90;;;;;;5057254;28;20538;-65
2022/07/26 02:42:43;;;;;;;13.32;2.97;;;17.70;99.90;;;;;;5053781;28;20120;-64
2022/07/26 02:45:09;;;;;;;10.63;2.90;;;17.80;99.90;;;;;;5056367;28;20097;-64
2022/07/26 02:47:47;;;;;;;11.07;3.30;;;17.80;99.90;;;;;;5049329;28;20080;-64
2022/07/26 02:50:16;;;;;;;10.40;3.10;;;17.70;99.90;;;;;;5049986;28;20037;-64
2022/07/26 02:52:41;;;;;;;9.25;3.28;;;17.70;99.90;;;;;;5062000;28;20376;-64
2022/07/26 02:55:08;;;;;;;13.73;3.53;;;17.70;99.90;;;;;;5050984;28;20044;-64
2022/07/26 02:57:33;;;;;;;8.32;2.95;;;17.70;99.90;;;;;;5055758;28;20045;-64
2022/07/26 02:59:59;;;;;;;11.68;2.83;;;17.70;99.90;;;;;;5052684;28;20376;-64
2022/07/26 03:02:24;;;;;;;9.70;3.00;;;17.70;99.90;;;;;;5054234;28;20081;-64
2022/07/26 03:04:50;;;;;;;9.60;2.83;;;17.70;99.90;;;;;;5050273;28;20499;-64
2022/07/26 03:07:15;;;;;;;11.52;2.55;;;17.80;99.90;;;;;;5052945;28;20937;-64
2022/07/26 03:09:41;;;;;;;9.27;2.63;;;17.80;99.90;;;;;;5055921;28;20444;-64
2022/07/26 03:12:07;;;;;;;12.10;3.10;;;17.80;99.90;;;;;;5051457;28;20036;-64
2022/07/26 03:14:32;;;;;;;14.50;3.03;;;17.80;99.90;;;;;;5055541;28;20468;-64
2022/07/26 03:16:58;;;;;;;13.90;3.00;;;17.80;99.90;;;;;;5054922;28;20068;-63
2022/07/26 03:19:23;;;;;;;5.65;2.33;;;17.80;99.90;;;;;;5051069;28;20040;-64
2022/07/26 03:21:49;;;;;;;9.63;2.75;;;17.80;99.90;;;;;;5060287;28;20052;-64
2022/07/26 03:24:14;;;;;;;7.43;2.90;;;17.80;99.90;;;;;;5066548;28;20538;-64
2022/07/26 03:26:40;;;;;;;12.30;2.72;;;17.70;99.90;;;;;;5062625;28;20063;-66
2022/07/26 03:29:05;;;;;;;10.02;3.65;;;17.50;99.90;;;;;;5054059;28;20059;-66
2022/07/26 03:31:31;;;;;;;7.18;3.28;;;17.20;99.90;;;;;;5050928;28;20036;-65
2022/07/26 03:33:56;;;;;;;8.32;3.22;;;17.10;99.90;;;;;;5056464;28;20039;-67
2022/07/26 03:36:22;;;;;;;6.90;2.63;;;17.00;99.90;;;;;;5062647;28;20473;-66
2022/07/26 03:38:47;;;;;;;5.15;2.45;;;16.90;99.90;;;;;;5054827;28;20052;-65
2022/07/26 03:41:13;;;;;;;5.43;2.45;;;16.90;99.90;;;;;;5065448;28;20067;-66
2022/07/26 03:43:39;;;;;;;6.38;2.40;;;16.80;99.90;;;;;;5062231;28;20145;-65
2022/07/26 03:46:07;;;;;;;4.57;2.33;;;16.80;99.90;;;;;;5053287;28;20432;-66
2022/07/26 03:48:33;;;;;;;6.45;2.20;;;16.70;99.90;;;;;;5058318;28;20047;-65
2022/07/26 03:50:59;;;;;;;6.53;2.42;;;16.60;99.90;;;;;;5054886;28;20129;-66
2022/07/26 03:53:24;;;;;;;6.45;2.40;;;16.60;99.90;;;;;;5053673;28;20040;-65
2022/07/26 03:58:34;;;;;;;7.28;2.67;;;16.40;99.90;;;;;;5066612;28;20048;-66
2022/07/26 04:01:00;;;;;;;7.25;2.92;;;16.40;99.90;;;;;;5060916;28;20043;-65
2022/07/26 04:03:25;;;;;;;7.10;2.60;;;16.40;99.90;;;;;;5059650;28;20163;-65
2022/07/26 04:06:06;;;;;;;5.90;2.28;;;16.40;99.90;;;;;;5026289;28;20206;-65
2022/07/26 04:08:32;;;;;;;6.22;2.58;;;16.40;99.90;;;;;;5055285;28;20132;-65
2022/07/26 04:10:58;;;;;;;5.60;2.33;;;16.40;99.90;;;;;;5052198;28;20036;-64
2022/07/26 04:13:23;;;;;;;6.68;2.55;;;16.40;99.90;;;;;;5052418;28;20063;-64
2022/07/26 04:15:49;;;;;;;4.78;2.30;;;16.40;99.90;;;;;;5058818;28;20044;-65
2022/07/26 04:18:15;;;;;;;5.78;2.72;;;16.40;99.90;;;;;;5062756;28;20119;-65
2022/07/26 04:20:41;;;;;;;5.32;2.20;;;16.40;99.90;;;;;;5055602;28;20039;-65
2022/07/26 04:23:07;;;;;;;8.88;2.53;;;16.40;99.90;;;;;;5057241;28;20068;-65
2022/07/26 04:25:33;;;;;;;6.50;2.50;;;16.40;99.90;;;;;;5054004;28;20091;-65
2022/07/26 04:27:59;;;;;;;7.75;3.20;;;16.40;99.90;;;;;;5049341;28;20052;-65
2022/07/26 04:30:25;;;;;;;5.22;2.25;;;16.40;99.90;;;;;;5054490;28;20073;-65
2022/07/26 04:32:51;;;;;;;5.55;2.42;;;16.50;99.90;;;;;;5049854;28;20048;-65
2022/07/26 04:35:17;;;;;;;8.02;2.80;;;16.60;99.90;;;;;;5053880;28;20037;-64
2022/07/26 04:37:44;;;;;;;6.43;2.70;;;16.70;99.90;;;;;;5050611;28;20035;-65
2022/07/26 04:40:14;;;;;;;6.57;2.63;;;16.90;99.90;;;;;;5055332;28;20045;-65
2022/07/26 04:42:40;;;;;;;9.93;2.70;;;16.90;99.90;;;;;;5055978;28;20056;-64
2022/07/26 04:45:06;;;;;;;6.53;2.38;;;16.90;99.90;;;;;;5058855;28;20417;-65
2022/07/26 04:47:32;;;;;;;6.95;2.85;;;16.90;99.90;;;;;;5049929;28;20041;-64
2022/07/26 04:49:58;;;;;;;4.55;2.10;;;16.80;99.90;;;;;;5055262;28;20114;-65
2022/07/26 04:52:23;;;;;;;8.05;2.13;;;16.90;99.90;;;;;;5051792;28;20049;-65
2022/07/26 04:54:49;;;;;;;6.38;2.28;;;16.90;99.90;;;;;;5061378;28;20392;-65
2022/07/26 04:57:14;;;;;;;5.20;1.90;;;16.90;99.90;;;;;;5052354;28;20071;-65
2022/07/26 04:59:40;;;;;;;6.90;1.90;;;16.80;99.90;;;;;;5051249;28;20099;-65
2022/07/26 05:02:05;;;;;;;6.97;2.00;;;16.90;99.90;;;;;;5057644;28;20040;-64
2022/07/26 05:04:31;;;;;;;7.63;1.80;;;16.90;99.90;;;;;;5050677;28;20129;-65
2022/07/26 05:07:01;;;;;;;11.27;2.58;;;16.80;99.90;;;;;;5060045;28;20049;-65
2022/07/26 05:09:28;;;;;;;;;;;16.80;99.90;;;;;;5053422;28;20109;-65
2022/07/26 05:11:54;;;;;;;6.78;2.00;;;16.90;99.90;;;;;;5068169;28;19929;-65
2022/07/26 05:14:20;;;;;;;7.45;2.00;;;16.90;99.90;;;;;;5050537;28;20094;-65
2022/07/26 05:16:45;;;;;;;8.27;2.38;;;16.90;99.90;;;;;;5051613;28;20564;-64
2022/07/26 05:19:12;;;;;;;7.57;2.10;;;16.80;99.90;;;;;;5050867;28;20041;-64
2022/07/26 05:21:37;;;;;;;5.97;2.08;;;16.90;99.90;;;;;;5053841;28;20045;-64
2022/07/26 05:24:03;;;;;;;8.30;2.20;;;16.90;99.90;;;;;;5057200;28;20059;-64
2022/07/26 05:26:29;;;;;;;6.90;1.63;;;16.90;99.90;;;;;;5060511;28;20071;-64
2022/07/26 05:28:55;;;;;;;7.65;2.15;;;17.00;99.90;;;;;;5056240;28;20040;-64
2022/07/26 05:31:20;;;;;;;5.63;1.77;;;16.90;99.90;;;;;;5054032;28;20041;-64
2022/07/26 05:33:46;;;;;;;9.45;1.67;;;16.90;99.90;;;;;;5046844;28;20056;-64
2022/07/26 05:36:12;;;;;;;6.40;1.75;;;16.90;99.90;;;;;;5061713;28;20412;-65
2022/07/26 05:38:37;;;;;;;6.53;2.05;;;16.90;99.90;;;;;;5053881;28;20044;-64
2022/07/26 05:41:03;;;;;;;4.35;1.65;;;16.90;99.90;;;;;;5053099;28;20048;-63
2022/07/26 05:43:30;;;;;;;5.47;1.27;;;16.90;99.90;;;;;;5059272;28;20029;-64
2022/07/26 05:45:56;;;;;;;3.88;1.40;;;16.90;99.90;;;;;;5051127;28;20041;-64
2022/07/26 05:48:22;;;;;;;7.10;1.35;;;16.90;99.90;;;;;;5068825;28;20040;-64
2022/07/26 05:50:48;;;;;;;5.63;1.23;;;17.00;99.90;;;;;;5055774;28;20037;-64
2022/07/26 05:53:14;;;;;;;4.63;1.83;;;17.00;99.90;;;;;;5055130;28;20091;-64
2022/07/26 05:55:39;;;;;;;5.75;1.38;;;17.00;99.90;;;;;;5047617;28;20114;-64
2022/07/26 05:58:05;;;;;;;6.78;1.40;;;17.00;99.90;;;;;;5057132;28;20052;-65
2022/07/26 06:00:30;;;;;;;6.35;1.17;;;17.00;99.90;;;;;;5053622;28;20025;-64
2022/07/26 06:02:56;;;;;;;3.20;1.40;;;17.00;99.90;;;;;;5052560;28;20047;-65
2022/07/26 06:05:22;;;;;;;3.80;0.80;;;17.00;99.90;;;;;;5039444;28;20040;-64
2022/07/26 06:07:47;;;;;;;4.72;0.98;;;17.10;99.90;;;;;;5065983;28;20056;-64
2022/07/26 06:10:13;;;;;;;4.05;0.80;;;17.10;99.90;;;;;;5049966;28;20439;-64
2022/07/26 06:12:38;;;;;;;2.03;0.90;;;17.20;99.90;;;;;;5049617;28;20128;-64
2022/07/26 06:15:05;;;;;;;4.88;1.27;;;17.20;99.90;;;;;;5050885;28;20091;-64
2022/07/26 06:17:30;;;;;;;5.82;1.10;;;17.20;99.90;;;;;;5062724;28;20060;-65
2022/07/26 06:19:56;;;;;;;6.28;0.93;;;17.20;99.90;;;;;;5051297;28;20547;-65
2022/07/26 06:22:22;;;;;;;5.70;0.80;;;17.10;99.90;;;;;;5055830;28;20040;-65
2022/07/26 06:24:47;;;;;;;4.35;1.00;;;17.10;99.90;;;;;;5048046;28;20504;-65
2022/07/26 06:27:13;;;;;;;5.70;1.08;;;16.80;99.90;;;;;;5055677;28;20388;-66
2022/07/26 06:29:39;;;;;;;4.45;0.95;;;16.70;99.90;;;;;;5055577;28;20449;-65
2022/07/26 06:32:05;;;;;;;4.50;0.88;;;16.60;99.90;;;;;;5058027;28;20045;-65
2022/07/26 06:34:31;;;;;;;4.05;0.98;;;16.50;99.90;;;;;;5052467;28;20028;-65
2022/07/26 06:36:57;;;;;;;3.67;1.00;;;16.50;99.90;;;;;;5066877;28;20040;-65
2022/07/26 06:39:22;;;;;;;5.57;1.20;;;16.50;99.90;;;;;;5052270;28;20044;-65
2022/07/26 06:41:48;;;;;;;3.55;0.85;;;16.50;99.90;;;;;;5061781;28;20051;-65
2022/07/26 06:44:14;;;;;;;3.88;0.73;;;16.60;99.90;;;;;;5055904;28;20039;-65
2022/07/26 06:46:39;;;;;;;3.80;1.02;;;16.70;99.90;;;;;;5050256;28;20056;-65
2022/07/26 06:49:05;;;;;;;3.80;0.80;;;16.80;99.90;;;;;;5048103;28;20495;-65
2022/07/26 06:51:30;;;;;;;4.28;0.98;;;16.90;99.90;;;;;;5058317;28;20731;-65
2022/07/26 06:53:56;;;;;;;6.90;0.98;;;17.00;99.90;;;;;;5054909;28;20436;-65
2022/07/26 06:56:22;;;;;;;4.65;0.90;;;17.10;99.90;;;;;;5051709;28;20029;-64
2022/07/26 06:58:47;;;;;;;4.70;0.77;;;17.20;99.90;;;;;;5053591;28;20057;-65
2022/07/26 07:01:14;;;;;;;3.60;0.90;;;17.20;99.90;;;;;;5049971;28;20047;-64
2022/07/26 07:03:39;;;;;;;4.13;1.02;;;17.20;99.90;;;;;;5055948;28;20055;-64
2022/07/26 07:06:05;;;;;;;2.55;0.73;;;17.20;99.90;;;;;;5067976;28;20037;-64
2022/07/26 07:08:31;;;;;;;4.07;0.70;;;17.10;99.90;;;;;;5055741;28;20037;-64
2022/07/26 07:10:56;;;;;;;5.15;0.70;;;17.10;99.90;;;;;;5051824;28;20031;-64
2022/07/26 07:13:22;;;;;;;3.50;0.88;;;16.90;99.90;;;;;;5048756;28;20139;-65
2022/07/26 07:15:48;;;;;;;4.82;0.95;;;16.80;99.90;;;;;;5049959;28;20622;-65
2022/07/26 07:18:13;;;;;;;2.58;0.80;;;16.70;99.90;;;;;;5048484;28;20033;-64
2022/07/26 07:20:39;;;;;;;4.90;1.40;;;16.60;99.90;;;;;;5050860;28;20044;-65
2022/07/26 07:23:06;;;;;;;4.95;1.00;;;16.60;99.90;;;;;;5049235;28;20040;-65
2022/07/26 07:25:31;;;;;;;1.80;0.73;;;16.70;99.90;;;;;;5049813;28;20484;-64
2022/07/26 07:27:58;;;;;;;4.07;0.90;;;16.90;99.90;;;;;;5051724;28;20064;-64
2022/07/26 07:30:24;;;;;;;4.28;0.80;;;16.90;99.90;;;;;;5051022;28;20443;-65
2022/07/26 07:32:50;;;;;;;7.47;1.60;;;16.80;99.90;;;;;;5048207;28;20057;-65
2022/07/26 07:35:15;;;;;;;3.78;0.77;;;16.80;99.90;;;;;;5055763;28;20041;-65
2022/07/26 07:37:41;;;;;;;5.63;1.77;;;16.90;99.90;;;;;;5055814;28;20036;-64
2022/07/26 07:40:08;;;;;;;3.33;0.90;;;16.90;99.90;;;;;;5053287;28;20041;-64
2022/07/26 07:42:34;;;;;;;2.53;0.63;;;17.00;99.90;;;;;;5051485;28;20094;-65
2022/07/26 07:44:59;;;;;;;5.60;0.88;;;17.50;99.90;;;;;;5051432;28;20849;-64
2022/07/26 07:47:25;;;;;;;2.05;0.57;;;17.80;99.90;;;;;;5049819;28;20068;-65
2022/07/26 07:49:50;;;;;;;3.97;0.73;;;18.10;99.90;;;;;;5043951;28;20066;-65
2022/07/26 07:52:16;;;;;;;3.85;0.68;;;18.50;99.90;;;;;;5048967;28;20138;-64
2022/07/26 07:54:41;;;;;;;5.35;0.60;;;18.90;99.90;;;;;;5046813;28;20041;-63
2022/07/26 07:57:07;;;;;;;5.68;0.70;;;19.00;99.90;;;;;;5050994;28;20045;-65
2022/07/26 07:59:32;;;;;;;5.50;0.70;;;19.00;99.90;;;;;;5048844;28;20037;-64
2022/07/26 08:01:58;;;;;;;3.20;0.82;;;19.10;99.90;;;;;;5049739;28;20041;-64
2022/07/26 08:04:24;;;;;;;4.85;1.02;;;19.20;99.90;;;;;;5048090;28;20062;-64
2022/07/26 08:06:49;;;;;;;3.97;0.80;;;19.30;99.90;;;;;;5051711;28;20044;-64
2022/07/26 08:09:15;;;;;;;4.45;0.90;;;19.30;99.90;;;;;;5050948;28;20444;-64
2022/07/26 08:11:41;;;;;;;3.00;0.70;;;19.30;99.90;;;;;;5043414;28;20132;-64
2022/07/26 08:14:06;;;;;;;2.92;0.73;;;19.30;99.90;;;;;;5046119;28;20115;-64
2022/07/26 08:16:32;;;;;;;5.25;0.47;;;19.10;99.90;;;;;;5047514;28;20029;-64
2022/07/26 08:18:58;;;;;;;4.15;0.68;;;18.90;99.90;;;;;;5043611;28;20037;-65
2022/07/26 08:21:24;;;;;;;2.83;0.60;;;18.90;99.90;;;;;;5045962;28;20102;-64
2022/07/26 08:23:50;;;;;;;3.45;0.57;;;19.00;99.90;;;;;;5046452;28;20052;-64
2022/07/26 08:26:16;;;;;;;7.60;0.85;;;19.30;99.90;;;;;;5047049;28;20063;-64
2022/07/26 08:28:41;;;;;;;2.22;0.73;;;19.50;99.90;;;;;;5046438;28;20094;-65
2022/07/26 08:31:07;;;;;;;3.83;0.50;;;19.80;99.90;;;;;;5047823;28;20033;-64
2022/07/26 08:33:32;;;;;;;4.45;0.70;;;20.10;99.90;;;;;;5047411;28;20500;-64
2022/07/26 08:35:58;;;;;;;3.53;0.60;;;20.50;99.90;;;;;;5046114;28;20033;-64
2022/07/26 08:38:23;;;;;;;5.70;0.80;;;20.70;98.80;;;;;;5048753;28;20032;-64
2022/07/26 08:40:49;;;;;;;2.75;0.60;;;20.90;98.20;;;;;;5050580;28;20106;-65
2022/07/26 08:43:15;;;;;;;4.70;0.70;;;21.30;97.60;;;;;;5047346;28;20047;-65
2022/07/26 08:45:40;;;;;;;5.28;0.70;;;21.40;96.80;;;;;;5051178;28;20512;-64
2022/07/26 08:48:06;;;;;;;6.93;0.88;;;21.00;96.30;;;;;;5048962;28;20029;-65
2022/07/26 08:50:32;;;;;;;6.90;1.10;;;20.70;95.50;;;;;;5046393;28;20063;-64
2022/07/26 08:53:05;;;;;;;3.05;0.73;;;20.40;95.30;;;;;;5048738;28;20044;-65
2022/07/26 08:55:31;;;;;;;2.38;0.70;;;20.20;94.10;;;;;;5054489;28;20127;-65
2022/07/26 08:57:57;;;;;;;4.63;0.80;;;20.10;95.20;;;;;;5048352;28;24809;-64
2022/07/26 09:00:28;;;;;;;4.90;0.80;;;19.90;94.90;;;;;;5047917;28;20033;-65
2022/07/26 09:02:54;;;;;;;3.92;0.63;;;20.20;93.90;;;;;;5046396;28;20060;-65
2022/07/26 09:05:27;;;;;;;4.82;0.98;;;21.00;93.90;;;;;;5045741;28;20135;-65
2022/07/26 09:07:52;;;;;;;5.75;0.85;;;21.40;91.80;;;;;;5051180;28;20052;-65
2022/07/26 09:10:18;;;;;;;3.85;1.17;;;21.50;92.60;;;;;;5050317;28;20052;-65
2022/07/26 09:12:44;;;;;;;4.63;0.90;;;21.60;91.70;;;;;;5048476;28;20032;-65
2022/07/26 09:15:19;;;;;;;4.10;1.10;;;21.70;90.90;;;;;;5050384;28;20167;-65
2022/07/26 09:17:48;;;;;;;4.53;0.85;;;21.80;88.80;;;;;;5046109;28;20401;-65
2022/07/26 09:20:19;;;;;;;4.53;1.08;;;21.70;90.60;;;;;;5044714;28;20799;-66
2022/07/26 09:22:58;;;;;;;4.32;0.82;;;22.10;89.20;;;;;;5049434;28;20055;-65
2022/07/26 09:25:25;;;;;;;3.53;0.80;;;22.50;86.70;;;;;;5050850;28;20182;-66
2022/07/26 09:27:51;;;;;;;3.92;1.05;;;22.80;89.60;;;;;;5049239;28;20080;-65
2022/07/26 09:30:17;;;;;;;4.45;1.02;;;23.30;88.80;;;;;;5047026;28;20041;-66
2022/07/26 09:33:05;;;;;;;4.63;1.23;;;23.60;85.60;;;;;;5045183;28;20389;-65
2022/07/26 09:35:33;;;;;;;3.17;0.80;;;23.80;77.80;;;;;;5042008;28;20037;-65
2022/07/26 09:37:59;;;;;;;2.67;0.75;;;24.10;80.40;;;;;;5047699;28;20125;-65
2022/07/26 09:40:33;;;;;;;4.53;1.00;;;24.50;79.70;;;;;;5047685;28;20120;-65
2022/07/26 09:43:04;;;;;;;4.45;1.00;;;24.70;74.80;;;;;;5048336;28;20447;-66
2022/07/26 09:45:33;;;;;;;6.38;1.02;;;25.40;74.00;;;;;;5048848;28;20549;-65
2022/07/26 09:47:58;;;;;;;3.70;0.90;;;26.00;73.20;;;;;;5048498;28;20890;-65
2022/07/26 09:50:26;;;;;;;4.90;0.98;;;25.90;72.50;;;;;;5047106;28;20044;-66
2022/07/26 09:53:09;;;;;;;4.63;0.88;;;25.40;68.10;;;;;;5049748;28;20033;-65
2022/07/26 09:55:54;;;;;;;4.95;1.13;;;25.10;66.70;;;;;;5051892;28;20041;-66
2022/07/26 09:58:20;;;;;;;5.60;1.00;;;25.10;67.90;;;;;;5044818;28;20098;-65
2022/07/26 10:00:47;;;;;;;5.95;1.38;;;25.00;71.50;;;;;;5051131;28;20067;-65
2022/07/26 10:03:12;;;;;;;4.13;1.10;;;25.00;70.50;;;;;;5045352;28;20040;-65
2022/07/26 10:05:38;;;;;;;6.32;1.02;;;24.90;70.10;;;;;;5046503;28;20381;-65
2022/07/26 10:08:05;;;;;;;2.33;0.90;;;24.70;70.60;;;;;;5050715;28;20029;-65
2022/07/26 10:10:45;;;;;;;5.00;1.10;;;24.40;70.10;;;;;;5048996;28;20630;-65
2022/07/26 10:13:10;;;;;;;;;;;24.00;69.80;;;;;;5049722;28;20041;-65
2022/07/26 10:15:38;;;;;;;5.13;1.10;;;23.50;67.50;;;;;;5048030;28;19920;-65
2022/07/26 10:18:07;;;;;;;6.22;1.20;;;23.30;74.10;;;;;;5044867;28;20059;-65
2022/07/26 10:20:40;;;;;;;7.03;1.30;;;23.30;73.10;;;;;;5044503;28;20381;-65
2022/07/26 10:23:34;;;;;;;3.03;1.10;;;23.50;71.90;;;;;;5048234;28;20039;-65
2022/07/26 10:26:01;;;;;;;6.72;1.25;;;24.00;68.10;;;;;;5046635;28;24402;-65
2022/07/26 10:28:29;;;;;;;4.80;1.20;;;24.30;70.30;;;;;;5047212;28;20051;-65
2022/07/26 10:31:19;;;;;;;4.93;1.10;;;24.20;69.40;;;;;;5049712;28;20086;-66
2022/07/26 10:33:49;;;;;;;5.60;1.13;;;23.80;66.20;;;;;;5046832;28;20071;-65
2022/07/26 10:36:41;;;;;;;6.68;1.50;;;23.30;69.10;;;;;;5045586;28;20041;-65
2022/07/26 10:39:14;;;;;;;5.07;1.63;;;23.00;69.10;;;;;;5045723;28;20488;-66
2022/07/26 10:41:45;;;;;;;6.60;1.50;;;23.00;71.50;;;;;;5048584;28;20071;-65
2022/07/26 10:44:20;;;;;;;4.45;1.10;;;23.30;69.70;;;;;;5046135;28;20087;-65
2022/07/26 10:47:08;;;;;;;5.10;1.30;;;23.60;70.00;;;;;;5046375;28;20393;-65
2022/07/26 10:49:36;;;;;;;6.65;1.85;;;23.80;66.40;;;;;;5043470;28;20041;-64
2022/07/26 10:52:17;;;;;;;7.03;1.80;;;23.70;68.50;;;;;;5046211;28;20037;-65
2022/07/26 10:54:57;;;;;;;8.60;1.77;;;23.00;64.80;;;;;;5047601;28;20378;-66
2022/07/26 10:57:43;;;;;;;9.13;1.65;;;22.50;67.60;;;;;;5046998;28;20072;-66
2022/07/26 11:00:12;;;;;;;7.55;2.10;;;22.10;70.00;;;;;;5048247;28;20119;-65
2022/07/26 11:02:38;;;;;;;7.15;1.73;;;21.80;71.30;;;;;;5051012;28;20049;-65
2022/07/26 11:05:13;;;;;;;8.48;2.28;;;21.70;72.40;;;;;;5044180;28;20536;-66
2022/07/26 11:08:03;;;;;;;9.25;2.08;;;21.70;71.20;;;;;;5046205;28;20044;-65
2022/07/26 11:10:32;;;;;;;7.28;2.20;;;21.70;70.30;;;;;;5046469;28;20048;-66
2022/07/26 11:13:09;;;;;;;6.90;1.60;;;22.10;71.70;;;;;;5045955;28;20055;-65
2022/07/26 11:15:37;;;;;;;7.25;1.42;;;22.40;67.40;;;;;;5050146;28;20040;-65
2022/07/26 11:18:26;;;;;;;5.65;1.65;;;22.70;68.10;;;;;;5049169;28;20059;-65
2022/07/26 11:20:55;;;;;;;5.65;1.40;;;22.90;64.90;;;;;;5044241;28;22189;-65
2022/07/26 11:23:22;;;;;;;8.35;1.67;;;22.80;66.50;;;;;;5045793;28;20048;-66
2022/07/26 11:26:03;;;;;;;7.85;1.52;;;22.80;65.40;;;;;;5046147;28;23447;-66
2022/07/26 11:28:29;;;;;;;6.93;1.50;;;22.70;61.70;;;;;;5045670;28;20048;-66
2022/07/26 11:30:58;;;;;;;5.60;1.42;;;22.60;64.20;;;;;;5046105;28;20362;-65
2022/07/26 11:33:38;;;;;;;7.35;1.42;;;22.50;64.40;;;;;;5043575;28;20045;-66
2022/07/26 11:36:04;;;;;;;6.68;1.38;;;22.60;64.20;;;;;;5044639;28;20068;-66
2022/07/26 11:38:53;;;;;;;6.50;1.40;;;22.70;64.00;;;;;;5046150;28;20482;-65
2022/07/26 11:41:24;;;;;;;8.15;1.58;;;22.80;64.80;;;;;;5046077;28;20041;-66
2022/07/26 11:43:51;;;;;;;8.75;1.50;;;22.90;63.60;;;;;;5044953;28;20464;-66
2022/07/26 11:46:17;;;;;;;5.03;1.20;;;23.10;62.90;;;;;;5045114;28;20032;-65
2022/07/26 11:48:47;;;;;;;5.60;1.10;;;23.30;62.30;;;;;;5046407;28;20057;-65
2022/07/26 11:51:18;;;;;;;9.55;1.42;;;23.40;61.80;;;;;;5048904;28;20480;-65
2022/07/26 11:53:44;;;;;;;8.15;1.65;;;23.30;61.70;;;;;;5055653;28;20044;-66
2022/07/26 11:56:21;;;;;;;8.57;1.58;;;23.20;61.60;;;;;;5049738;28;20039;-66
2022/07/26 11:58:49;;;;;;;6.45;1.40;;;23.40;60.30;;;;;;5052323;28;20037;-66
2022/07/26 12:01:19;;;;;;;4.70;1.20;;;23.40;60.90;;;;;;5048723;28;20052;-66
2022/07/26 12:03:48;;;;;;;7.60;1.23;;;23.40;61.20;;;;;;5046564;28;20037;-66
2022/07/26 12:06:16;;;;;;;5.00;1.10;;;23.40;60.60;;;;;;5050563;28;20036;-65
2022/07/26 12:08:44;;;;;;;9.05;1.65;;;23.40;59.80;;;;;;5049758;28;20029;-65
2022/07/26 12:11:10;;;;;;;5.07;1.00;;;23.60;59.30;;;;;;5049408;28;20037;-66
2022/07/26 12:13:58;;;;;;;5.32;1.25;;;23.90;59.10;;;;;;5048854;28;20055;-67
2022/07/26 12:16:41;;;;;;;4.38;1.20;;;24.30;58.40;;;;;;5048683;28;20132;-65
2022/07/26 12:19:10;;;;;;;4.43;1.00;;;24.70;57.30;;;;;;5046122;28;20037;-66
2022/07/26 12:21:39;;;;;;;6.22;1.15;;;24.70;52.80;;;;;;5047858;28;20033;-65
2022/07/26 12:24:05;;;;;;;3.20;1.00;;;24.60;55.00;;;;;;5048577;28;20075;-65
2022/07/26 12:26:31;;;;;;;4.05;0.95;;;24.40;55.40;;;;;;5049318;28;20631;-65
2022/07/26 12:29:22;;;;;;;3.10;1.00;;;24.20;55.40;;;;;;5049586;28;20037;-65
2022/07/26 12:31:43;;;;;;;6.35;1.30;;;23.80;55.60;;;;;;5053793;28;20041;-66
2022/07/26 12:34:08;;;;;;;4.65;1.20;;;23.50;55.50;;;;;;5046053;28;20373;-66
2022/07/26 12:36:34;;;;;;;5.05;1.00;;;23.30;55.70;;;;;;5048324;28;20037;-66
2022/07/26 12:38:59;;;;;;;7.57;0.85;;;23.20;56.10;;;;;;5050603;28;20435;-66
2022/07/26 12:41:37;;;;;;;4.55;0.90;;;23.00;56.50;;;;;;5049420;28;20393;-66
2022/07/26 12:44:09;;;;;;;3.22;0.77;;;23.00;56.50;;;;;;5047739;28;20037;-65
2022/07/26 12:46:35;;;;;;;2.47;0.73;;;23.00;56.80;;;;;;5048502;28;20033;-65
2022/07/26 12:49:01;;;;;;;3.85;0.98;;;22.90;57.20;;;;;;5045661;28;20823;-66
2022/07/26 12:51:27;;;;;;;4.50;0.90;;;22.90;57.10;;;;;;5048085;28;20550;-66